createdAt,value
2022-12-19T00:03:18.949Z,51.90
2022-12-19T00:08:18.693Z,50.50
2022-12-19T00:13:18.632Z,48.30
2022-12-19T00:18:18.692Z,49.50
2022-12-19T00:23:18.507Z,47.50
2022-12-19T00:28:18.473Z,47.50
2022-12-19T00:33:18.347Z,50.70
2022-12-19T00:38:18.293Z,47.70
2022-12-19T00:43:18.203Z,46.30
2022-12-19T00:48:18.235Z,47.00
2022-12-19T00:53:18.102Z,43.90
2022-12-19T00:58:18.126Z,47.70
2022-12-19T01:03:18.028Z,45.80
2022-12-19T01:08:17.908Z,44.30
2022-12-19T01:13:17.868Z,48.40
2022-12-19T01:18:17.752Z,44.20
2022-12-19T01:23:17.694Z,45.00
2022-12-19T01:28:17.655Z,47.40
2022-12-19T01:33:17.604Z,42.60
2022-12-19T01:38:17.517Z,43.20
2022-12-19T01:43:17.453Z,44.60
2022-12-19T01:48:17.422Z,39.10
2022-12-19T01:53:17.338Z,42.80
2022-12-19T01:58:17.280Z,41.00
2022-12-19T02:03:17.320Z,45.40
2022-12-19T02:08:17.125Z,42.10
2022-12-19T02:13:17.080Z,38.40
2022-12-19T02:18:17.053Z,36.60
2022-12-19T02:23:17.045Z,36.20
2022-12-19T02:28:16.857Z,37.20
2022-12-19T02:33:16.864Z,36.60
2022-12-19T02:38:16.786Z,35.60
2022-12-19T02:43:16.670Z,35.20
2022-12-19T02:48:19.226Z,31.70
2022-12-19T02:53:16.658Z,32.80
2022-12-19T02:58:16.579Z,33.70
2022-12-19T03:03:16.519Z,36.00
2022-12-19T03:08:16.401Z,36.10
2022-12-19T03:13:16.325Z,35.70
2022-12-19T03:18:16.269Z,37.30
2022-12-19T03:23:16.181Z,35.40
2022-12-19T03:28:16.159Z,35.90
2022-12-19T03:33:16.091Z,38.80
2022-12-19T03:38:15.994Z,38.00
2022-12-19T03:43:15.987Z,37.60
2022-12-19T03:48:15.938Z,37.10
2022-12-19T03:53:15.813Z,40.90
2022-12-19T03:58:15.800Z,37.20
2022-12-19T04:03:15.806Z,38.80
2022-12-19T04:08:15.627Z,40.10
2022-12-19T04:13:15.661Z,39.70
2022-12-19T04:18:15.627Z,44.70
2022-12-19T04:23:15.455Z,41.40
2022-12-19T04:28:15.423Z,44.50
2022-12-19T04:33:15.419Z,44.60
2022-12-19T04:38:15.246Z,45.10
2022-12-19T04:43:15.259Z,44.90
2022-12-19T04:48:15.189Z,45.30
2022-12-19T04:53:15.088Z,44.50
2022-12-19T04:58:20.264Z,50.50
2022-12-19T05:03:16.035Z,46.50
2022-12-19T05:08:14.953Z,48.50
2022-12-19T05:13:14.820Z,47.40
2022-12-19T05:18:14.756Z,47.40
2022-12-19T05:23:17.051Z,48.80
2022-12-19T05:28:14.605Z,45.50
2022-12-19T05:33:15.247Z,49.10
2022-12-19T05:38:14.491Z,47.60
2022-12-19T05:43:14.430Z,50.10
2022-12-19T05:48:14.390Z,52.30
2022-12-19T05:53:14.361Z,51.10
2022-12-19T05:58:14.252Z,48.70
2022-12-19T06:03:14.324Z,49.40
2022-12-19T06:08:14.185Z,52.40
2022-12-19T06:13:14.069Z,49.00
2022-12-19T06:18:14.009Z,49.20
2022-12-19T06:23:13.999Z,48.30
2022-12-19T06:28:13.837Z,52.50
2022-12-19T06:33:13.807Z,53.30
2022-12-19T06:38:13.737Z,57.50
2022-12-19T06:43:13.663Z,55.10
2022-12-19T06:48:13.612Z,54.60
2022-12-19T06:53:13.540Z,55.40
2022-12-19T06:58:13.541Z,53.20
2022-12-19T07:03:13.482Z,55.90
2022-12-19T07:08:13.369Z,57.00
2022-12-19T07:13:13.292Z,54.00
2022-12-19T07:18:13.306Z,55.80
2022-12-19T07:23:13.209Z,54.50
2022-12-19T07:28:13.060Z,52.90
2022-12-19T07:33:18.268Z,57.50
2022-12-19T07:38:15.026Z,53.10
2022-12-19T07:43:12.953Z,55.80
2022-12-19T07:48:12.867Z,55.50
2022-12-19T07:53:12.786Z,53.90
2022-12-19T07:58:12.678Z,53.90
2022-12-19T08:03:12.752Z,53.00
2022-12-19T08:08:12.535Z,52.60
2022-12-19T08:13:12.496Z,54.40
2022-12-19T08:18:12.543Z,55.90
2022-12-19T08:23:13.914Z,52.20
2022-12-19T08:28:12.294Z,51.20
2022-12-19T08:33:12.222Z,54.40
2022-12-19T08:38:12.158Z,50.40
2022-12-19T08:43:12.464Z,50.80
2022-12-19T08:48:12.063Z,49.60
2022-12-19T08:53:12.034Z,51.40
2022-12-19T08:58:12.730Z,49.10
2022-12-19T09:03:12.195Z,49.80
2022-12-19T09:08:11.756Z,53.00
2022-12-19T09:13:11.739Z,49.40
2022-12-19T09:18:11.746Z,49.40
2022-12-19T09:23:11.596Z,47.30
2022-12-19T09:28:27.458Z,52.00
2022-12-19T09:33:12.477Z,52.30
2022-12-19T09:38:11.436Z,54.70
2022-12-19T09:43:11.325Z,56.80
2022-12-19T09:48:11.270Z,53.40
2022-12-19T09:53:12.252Z,55.90
2022-12-19T09:58:11.217Z,54.70
2022-12-19T10:03:12.091Z,51.80
2022-12-19T10:08:11.074Z,51.60
2022-12-19T10:13:13.428Z,52.90
2022-12-19T10:18:10.958Z,55.10
2022-12-19T10:23:10.792Z,54.50
2022-12-19T10:28:10.769Z,53.40
2022-12-19T10:33:10.713Z,51.90
2022-12-19T10:38:11.618Z,55.10
2022-12-19T10:43:12.816Z,51.00
2022-12-19T10:48:11.457Z,49.90
2022-12-19T10:53:10.454Z,50.50
2022-12-19T10:58:10.395Z,49.20
2022-12-19T11:03:10.474Z,47.70
2022-12-19T11:08:10.218Z,48.20
2022-12-19T11:18:12.032Z,53.00
2022-12-19T11:25:10.642Z,50.00
2022-12-19T11:29:34.556Z,52.10
2022-12-19T11:30:36.280Z,49.40
2022-12-19T11:33:10.954Z,50.50
2022-12-19T11:38:09.796Z,49.60
2022-12-19T11:48:11.033Z,51.90
2022-12-19T11:53:18.376Z,48.90
2022-12-19T11:58:10.540Z,51.40
2022-12-19T12:03:09.572Z,51.50
2022-12-19T12:08:52.197Z,51.20
2022-12-19T12:24:01.052Z,54.00
2022-12-19T12:31:10.900Z,56.70
2022-12-19T12:31:40.922Z,56.80
2022-12-19T12:31:53.737Z,59.20
2022-12-19T12:35:47.066Z,53.60
2022-12-19T12:38:23.404Z,48.30
2022-12-19T12:43:09.996Z,48.70
2022-12-19T12:48:08.920Z,49.20
2022-12-19T12:53:08.970Z,51.20
2022-12-19T12:58:13.758Z,51.20
2022-12-19T13:03:09.910Z,50.70
2022-12-19T13:08:08.693Z,49.90
2022-12-19T13:13:14.263Z,51.80
2022-12-19T13:18:09.578Z,53.00
2022-12-19T13:23:08.453Z,54.20
2022-12-19T13:28:08.432Z,57.10
2022-12-19T13:33:08.343Z,56.40
2022-12-19T13:40:00.222Z,54.70
2022-12-19T13:43:09.772Z,55.90
2022-12-19T13:48:08.135Z,59.10
2022-12-19T13:53:08.095Z,58.00
2022-12-19T13:58:07.980Z,57.80
2022-12-19T14:03:08.079Z,60.00
2022-12-19T14:08:07.945Z,60.80
2022-12-19T14:13:43.146Z,60.30
2022-12-19T14:18:45.419Z,63.00
2022-12-19T14:23:08.686Z,62.40
2022-12-19T14:28:26.135Z,63.90
2022-12-19T14:33:45.559Z,66.90
2022-12-19T14:39:19.620Z,62.60
2022-12-19T14:44:00.339Z,63.60
2022-12-19T14:53:10.845Z,65.50
2022-12-19T14:54:33.977Z,59.50
2022-12-19T14:58:53.140Z,61.10
2022-12-19T15:03:13.904Z,63.10
2022-12-19T15:08:08.073Z,59.70
2022-12-19T15:14:48.129Z,58.70
2022-12-19T15:18:08.024Z,60.60
2022-12-19T15:23:06.912Z,56.50
2022-12-19T15:28:06.871Z,60.50
2022-12-19T15:33:06.748Z,62.00
2022-12-19T15:38:06.722Z,60.40
2022-12-19T15:43:06.650Z,64.60
2022-12-19T15:48:06.584Z,59.10
2022-12-19T15:53:08.035Z,60.20
2022-12-19T15:58:06.482Z,55.40
2022-12-19T16:03:23.338Z,54.40
2022-12-19T16:08:07.286Z,53.40
2022-12-19T16:13:06.258Z,54.10
2022-12-19T16:18:06.185Z,50.20
2022-12-19T16:23:06.104Z,52.70
2022-12-19T16:28:06.087Z,51.80
2022-12-19T16:33:06.024Z,49.80
2022-12-19T16:38:05.911Z,50.50
2022-12-19T16:43:05.892Z,50.20
2022-12-19T16:48:06.570Z,46.90
2022-12-19T16:53:05.719Z,51.60
2022-12-19T16:58:05.732Z,51.10
2022-12-19T17:03:05.781Z,48.80
2022-12-19T17:08:05.527Z,46.00
2022-12-19T17:13:05.499Z,50.30
2022-12-19T17:18:05.402Z,46.90
2022-12-19T17:23:05.322Z,52.40
2022-12-19T17:28:05.364Z,48.00
2022-12-19T17:33:05.211Z,48.70
2022-12-19T17:38:05.139Z,51.50
2022-12-19T17:43:05.069Z,51.40
2022-12-19T17:48:05.020Z,49.20
2022-12-19T17:53:04.954Z,48.10
2022-12-19T17:58:04.928Z,46.10
2022-12-19T18:03:05.080Z,46.50
2022-12-19T18:08:04.800Z,48.20
2022-12-19T18:13:04.737Z,49.00
2022-12-19T18:18:04.914Z,49.40
2022-12-19T18:23:04.559Z,52.60
2022-12-19T18:28:04.530Z,50.10
2022-12-19T18:33:04.403Z,51.20
2022-12-19T18:38:04.354Z,50.20
2022-12-19T18:43:04.290Z,43.70
2022-12-19T18:48:04.298Z,36.90
2022-12-19T18:53:04.265Z,39.10
2022-12-19T18:58:04.120Z,48.40
2022-12-19T19:03:04.224Z,36.90
2022-12-19T19:08:04.005Z,40.30
2022-12-19T19:13:09.883Z,43.00
2022-12-19T19:18:04.882Z,46.50
2022-12-19T19:23:03.807Z,51.50
2022-12-19T19:28:03.734Z,45.10
2022-12-19T19:33:03.682Z,42.60
2022-12-19T19:38:03.613Z,44.30
2022-12-19T19:43:03.494Z,42.60
2022-12-19T19:48:03.466Z,41.30
2022-12-19T19:53:03.401Z,42.20
2022-12-19T19:58:03.322Z,40.70
2022-12-19T20:03:07.249Z,41.40
2022-12-19T20:08:04.275Z,40.90
2022-12-19T20:13:03.158Z,40.60
2022-12-19T20:18:03.057Z,40.30
2022-12-19T20:23:02.983Z,40.20
2022-12-19T20:28:02.987Z,42.90
2022-12-19T20:33:02.976Z,41.50
2022-12-19T20:38:02.776Z,47.00
2022-12-19T20:43:02.737Z,42.70
2022-12-19T20:48:02.667Z,43.20
2022-12-19T20:53:02.650Z,44.70
2022-12-19T20:58:02.650Z,46.80
2022-12-19T21:03:28.057Z,46.60
2022-12-19T21:08:03.588Z,48.10
2022-12-19T21:13:02.374Z,52.60
2022-12-19T21:18:02.272Z,50.90
2022-12-19T21:23:02.209Z,51.50
2022-12-19T21:28:02.170Z,53.40
2022-12-19T21:33:02.078Z,53.70
2022-12-19T21:38:02.222Z,55.10
2022-12-19T21:43:07.990Z,56.00
2022-12-19T21:48:02.862Z,54.00
2022-12-19T21:53:01.900Z,55.60
2022-12-19T21:58:01.795Z,58.00
2022-12-19T22:03:13.958Z,59.10
2022-12-19T22:08:02.640Z,58.00
2022-12-19T22:13:01.569Z,54.40
2022-12-19T22:18:01.541Z,55.60
2022-12-19T22:23:01.474Z,58.70
2022-12-19T22:28:01.382Z,57.10
2022-12-19T22:33:01.301Z,55.50
2022-12-19T22:38:01.277Z,57.60
2022-12-19T22:43:01.211Z,55.60
2022-12-19T22:48:01.102Z,52.80
2022-12-19T22:53:01.135Z,53.20
2022-12-19T22:58:01.013Z,55.30
2022-12-19T23:03:01.086Z,53.90
2022-12-19T23:08:00.900Z,55.70
2022-12-19T23:13:00.807Z,56.60
2022-12-19T23:18:00.741Z,56.60
2022-12-19T23:23:00.763Z,55.40
2022-12-19T23:28:00.683Z,56.60
2022-12-19T23:33:00.535Z,58.20
2022-12-19T23:38:00.494Z,59.80
2022-12-19T23:43:00.457Z,60.50
2022-12-19T23:48:00.351Z,58.50
2022-12-19T23:53:00.266Z,56.50
2022-12-19T23:58:00.197Z,57.90
